createdAt,value
2022-10-07T00:02:07.896Z,13.80
2022-10-07T00:04:45.282Z,13.79
2022-10-07T00:07:17.610Z,13.81
2022-10-07T00:09:49.891Z,13.82
2022-10-07T00:12:22.159Z,13.84
2022-10-07T00:14:54.455Z,13.87
2022-10-07T00:17:26.618Z,13.88
2022-10-07T00:19:58.757Z,13.92
2022-10-07T00:22:31.165Z,13.93
2022-10-07T00:25:03.330Z,13.94
2022-10-07T00:27:35.515Z,13.95
2022-10-07T00:30:08.959Z,13.93
2022-10-07T00:32:41.090Z,13.88
2022-10-07T00:35:14.146Z,13.84
2022-10-07T00:37:46.876Z,13.81
2022-10-07T00:40:19.517Z,13.77
2022-10-07T00:42:51.949Z,13.71
2022-10-07T00:45:24.500Z,13.66
2022-10-07T00:47:56.816Z,13.61
2022-10-07T00:50:30.727Z,13.55
2022-10-07T00:53:05.578Z,13.52
2022-10-07T00:55:37.867Z,13.49
2022-10-07T00:58:10.117Z,13.45
2022-10-07T01:00:42.617Z,13.40
2022-10-07T01:03:15.299Z,13.39
2022-10-07T01:05:47.530Z,13.37
2022-10-07T01:08:21.115Z,13.35
2022-10-07T01:11:14.061Z,13.34
2022-10-07T01:13:59.244Z,13.33
2022-10-07T01:16:39.028Z,13.28
2022-10-07T01:19:28.735Z,13.25
2022-10-07T01:22:12.735Z,13.23
2022-10-07T01:24:48.146Z,13.23
2022-10-07T01:27:23.192Z,13.22
2022-10-07T01:29:58.751Z,13.22
2022-10-07T01:32:34.516Z,13.20
2022-10-07T01:35:12.287Z,13.18
2022-10-07T01:37:48.595Z,13.18
2022-10-07T01:40:25.549Z,13.16
2022-10-07T01:42:59.386Z,13.16
2022-10-07T01:45:33.702Z,13.16
2022-10-07T01:48:05.953Z,13.16
2022-10-07T01:50:39.327Z,13.16
2022-10-07T01:53:35.171Z,13.12
2022-10-07T01:56:32.840Z,13.11
2022-10-07T01:59:25.663Z,13.10
2022-10-07T02:02:08.808Z,13.08
2022-10-07T02:04:59.412Z,13.05
2022-10-07T02:07:44.443Z,13.06
2022-10-07T02:10:25.460Z,13.09
2022-10-07T02:13:06.129Z,13.06
2022-10-07T02:15:43.999Z,12.99
2022-10-07T02:18:20.832Z,12.97
2022-10-07T02:20:56.021Z,12.90
2022-10-07T02:23:29.748Z,12.83
2022-10-07T02:26:04.478Z,12.82
2022-10-07T02:28:40.873Z,12.81
2022-10-07T02:31:18.001Z,12.72
2022-10-07T02:33:53.368Z,12.67
2022-10-07T02:36:31.470Z,12.62
2022-10-07T02:39:04.006Z,12.57
2022-10-07T02:41:45.007Z,12.55
2022-10-07T02:44:26.897Z,12.54
2022-10-07T02:47:04.083Z,12.50
2022-10-07T02:49:39.342Z,12.48
2022-10-07T02:52:15.299Z,12.43
2022-10-07T02:54:48.709Z,12.35
2022-10-07T02:57:24.863Z,12.29
2022-10-07T03:00:01.161Z,12.25
2022-10-07T03:02:41.272Z,12.27
2022-10-07T03:05:19.390Z,12.30
2022-10-07T03:07:56.504Z,12.31
2022-10-07T03:10:29.452Z,12.31
2022-10-07T03:13:05.206Z,12.32
2022-10-07T03:15:42.152Z,12.34
2022-10-07T03:18:28.510Z,12.35
2022-10-07T03:21:02.091Z,12.33
2022-10-07T03:23:34.293Z,12.34
2022-10-07T03:26:06.805Z,12.31
2022-10-07T03:28:39.133Z,12.25
2022-10-07T03:31:13.189Z,12.25
2022-10-07T03:33:45.731Z,12.27
2022-10-07T03:36:17.953Z,12.28
2022-10-07T03:38:50.179Z,12.27
2022-10-07T03:41:22.616Z,12.26
2022-10-07T03:43:59.248Z,12.27
2022-10-07T03:46:31.635Z,12.29
2022-10-07T03:49:05.056Z,12.30
2022-10-07T03:51:37.349Z,12.31
2022-10-07T03:54:09.836Z,12.31
2022-10-07T03:56:41.994Z,12.31
2022-10-07T03:59:14.174Z,12.31
2022-10-07T04:01:46.477Z,12.32
2022-10-07T04:04:20.201Z,12.34
2022-10-07T04:06:52.356Z,12.33
2022-10-07T04:09:24.639Z,12.35
2022-10-07T04:11:56.804Z,12.36
2022-10-07T04:14:28.952Z,12.39
2022-10-07T04:17:01.128Z,12.42
2022-10-07T04:19:33.445Z,12.44
2022-10-07T04:22:08.913Z,12.45
2022-10-07T04:24:41.368Z,12.46
2022-10-07T04:27:28.337Z,12.48
2022-10-07T04:30:06.642Z,12.50
2022-10-07T04:32:38.801Z,12.52
2022-10-07T04:35:12.053Z,12.52
2022-10-07T04:37:44.677Z,12.47
2022-10-07T04:40:18.911Z,12.42
2022-10-07T04:43:09.332Z,12.41
2022-10-07T04:45:41.514Z,12.40
2022-10-07T04:48:13.663Z,12.43
2022-10-07T04:50:46.461Z,12.47
2022-10-07T04:53:19.979Z,12.50
2022-10-07T04:55:53.234Z,12.49
2022-10-07T04:58:25.477Z,12.50
2022-10-07T05:00:59.393Z,12.53
2022-10-07T05:03:32.208Z,12.57
2022-10-07T05:06:06.793Z,12.62
2022-10-07T05:08:38.939Z,12.68
2022-10-07T05:11:11.180Z,12.73
2022-10-07T05:13:43.381Z,12.81
2022-10-07T05:16:15.594Z,12.89
2022-10-07T05:18:47.961Z,12.95
2022-10-07T05:21:20.098Z,13.05
2022-10-07T05:23:52.423Z,13.21
2022-10-07T05:26:24.594Z,13.39
2022-10-07T05:28:57.739Z,13.61
2022-10-07T05:31:30.132Z,13.85
2022-10-07T05:34:03.039Z,14.14
2022-10-07T05:36:35.024Z,14.44
2022-10-07T05:39:07.504Z,14.76
2022-10-07T05:41:45.763Z,15.14
2022-10-07T05:44:18.712Z,15.43
2022-10-07T05:46:50.875Z,15.71
2022-10-07T05:49:23.044Z,15.94
2022-10-07T05:51:55.222Z,16.08
2022-10-07T05:54:27.589Z,16.29
2022-10-07T05:57:00.276Z,16.36
2022-10-07T05:59:32.768Z,16.42
2022-10-07T06:02:05.134Z,16.42
2022-10-07T06:04:37.380Z,16.40
2022-10-07T06:07:09.557Z,16.53
2022-10-07T06:09:59.363Z,16.62
2022-10-07T06:12:49.352Z,16.85
2022-10-07T06:15:21.529Z,17.05
2022-10-07T06:17:53.740Z,17.28
2022-10-07T06:20:26.097Z,17.37
2022-10-07T06:22:59.084Z,17.38
2022-10-07T06:25:31.243Z,17.37
2022-10-07T06:28:03.483Z,17.46
2022-10-07T06:30:35.786Z,17.68
2022-10-07T06:33:08.125Z,18.03
2022-10-07T06:35:40.357Z,18.29
2022-10-07T06:38:12.655Z,18.47
2022-10-07T06:40:44.903Z,18.57
2022-10-07T06:43:17.067Z,18.60
2022-10-07T06:45:49.361Z,18.55
2022-10-07T06:48:21.567Z,18.56
2022-10-07T06:50:55.132Z,18.69
2022-10-07T06:53:27.999Z,18.77
2022-10-07T06:56:05.004Z,18.87
2022-10-07T06:58:37.490Z,19.12
2022-10-07T07:01:09.757Z,19.28
2022-10-07T07:03:42.524Z,19.38
2022-10-07T07:06:15.120Z,19.55
2022-10-07T07:08:50.127Z,19.77
2022-10-07T07:11:38.078Z,19.96
2022-10-07T07:14:12.704Z,20.14
2022-10-07T07:16:45.019Z,20.37
2022-10-07T07:19:17.388Z,20.59
2022-10-07T07:21:51.321Z,20.77
2022-10-07T07:24:24.192Z,21.05
2022-10-07T07:26:56.360Z,21.40
2022-10-07T07:29:28.716Z,21.73
2022-10-07T07:32:02.382Z,22.05
2022-10-07T07:34:36.480Z,22.35
2022-10-07T07:37:08.837Z,22.64
2022-10-07T07:39:42.805Z,22.92
2022-10-07T07:42:15.145Z,23.19
2022-10-07T07:44:47.391Z,23.42
2022-10-07T07:47:19.552Z,23.63
2022-10-07T07:49:53.097Z,23.85
2022-10-07T07:52:25.777Z,23.98
2022-10-07T07:54:59.353Z,24.06
2022-10-07T07:57:32.541Z,24.18
2022-10-07T08:00:05.542Z,24.25
2022-10-07T08:02:37.768Z,24.28
2022-10-07T08:05:10.477Z,24.42
2022-10-07T08:07:43.186Z,24.48
2022-10-07T08:10:15.638Z,24.57
2022-10-07T08:12:47.863Z,24.74
2022-10-07T08:15:20.158Z,24.87
2022-10-07T08:17:53.058Z,24.85
2022-10-07T08:20:25.324Z,24.90
2022-10-07T08:22:59.101Z,24.98
2022-10-07T08:25:31.413Z,25.09
2022-10-07T08:28:03.663Z,25.33
2022-10-07T08:30:36.567Z,25.56
2022-10-07T08:33:08.849Z,25.68
2022-10-07T08:35:41.012Z,25.67
2022-10-07T08:38:14.627Z,25.71
2022-10-07T08:40:51.972Z,25.81
2022-10-07T08:43:26.486Z,25.87
2022-10-07T08:45:58.896Z,25.98
2022-10-07T08:48:39.040Z,25.98
2022-10-07T08:51:21.093Z,25.92
2022-10-07T08:53:59.146Z,25.83
2022-10-07T08:56:33.853Z,25.88
2022-10-07T08:59:18.417Z,26.04
2022-10-07T09:02:04.008Z,26.20
2022-10-07T09:04:45.497Z,26.14
2022-10-07T09:07:25.136Z,26.16
2022-10-07T09:10:01.986Z,26.34
2022-10-07T09:12:39.812Z,26.53
2022-10-07T09:15:21.287Z,26.48
2022-10-07T09:17:59.515Z,26.31
2022-10-07T09:20:36.815Z,26.13
2022-10-07T09:23:15.524Z,26.12
2022-10-07T09:25:47.930Z,26.21
2022-10-07T09:28:25.202Z,26.23
2022-10-07T09:30:57.939Z,26.30
2022-10-07T09:33:31.082Z,26.31
2022-10-07T09:36:09.650Z,26.39
2022-10-07T09:38:45.796Z,26.47
2022-10-07T09:41:29.088Z,26.43
2022-10-07T09:44:07.378Z,26.28
2022-10-07T09:46:49.513Z,26.13
2022-10-07T09:49:37.287Z,26.05
2022-10-07T09:52:16.975Z,26.01
2022-10-07T09:54:51.873Z,26.08
2022-10-07T09:57:34.105Z,26.11
2022-10-07T10:00:29.390Z,26.10
2022-10-07T10:03:07.686Z,25.99
2022-10-07T10:05:41.696Z,25.99
2022-10-07T10:08:26.916Z,26.12
2022-10-07T10:11:01.513Z,26.20
2022-10-07T10:13:36.243Z,26.24
2022-10-07T10:16:34.115Z,26.28
2022-10-07T10:19:07.492Z,26.51
2022-10-07T10:21:42.883Z,26.59
2022-10-07T10:24:15.377Z,26.51
2022-10-07T10:27:03.348Z,26.33
2022-10-07T10:29:49.036Z,26.26
2022-10-07T10:32:57.357Z,26.32
2022-10-07T10:35:32.475Z,26.32
2022-10-07T10:38:17.610Z,26.32
2022-10-07T10:40:58.170Z,26.27
2022-10-07T10:43:38.572Z,26.22
2022-10-07T10:46:36.469Z,26.30
2022-10-07T10:49:19.923Z,26.21
2022-10-07T10:52:13.120Z,26.16
2022-10-07T10:55:00.271Z,26.03
2022-10-07T10:57:45.456Z,25.78
2022-10-07T11:00:20.241Z,25.57
2022-10-07T11:03:08.657Z,25.60
2022-10-07T11:05:42.691Z,25.55
2022-10-07T11:08:24.096Z,25.49
2022-10-07T11:11:02.616Z,25.49
2022-10-07T11:13:43.637Z,25.40
2022-10-07T11:16:19.475Z,25.25
2022-10-07T11:18:57.446Z,25.17
2022-10-07T11:21:34.639Z,25.10
2022-10-07T11:24:13.894Z,25.03
2022-10-07T11:26:51.611Z,24.94
2022-10-07T11:29:32.336Z,24.85
2022-10-07T11:32:09.533Z,24.81
2022-10-07T11:34:53.621Z,24.74
2022-10-07T11:37:34.985Z,24.68
2022-10-07T11:40:09.725Z,24.63
2022-10-07T11:42:46.615Z,24.55
2022-10-07T11:45:26.811Z,24.47
2022-10-07T11:48:02.769Z,24.24
2022-10-07T11:50:41.327Z,24.11
2022-10-07T11:53:20.956Z,24.00
2022-10-07T11:56:00.361Z,23.87
2022-10-07T11:58:37.404Z,23.81
2022-10-07T12:01:46.123Z,23.80
2022-10-07T12:04:35.596Z,23.78
2022-10-07T12:07:39.242Z,23.72
2022-10-07T12:10:35.418Z,23.68
2022-10-07T12:13:23.019Z,23.63
2022-10-07T12:15:56.881Z,23.50
2022-10-07T12:18:32.369Z,23.43
2022-10-07T12:21:04.268Z,23.38
2022-10-07T12:23:44.838Z,23.35
2022-10-07T12:26:53.561Z,23.39
2022-10-07T12:29:50.291Z,23.39
2022-10-07T12:32:57.078Z,23.37
2022-10-07T12:35:51.492Z,23.33
2022-10-07T12:38:31.534Z,23.30
2022-10-07T12:41:25.160Z,23.28
2022-10-07T12:44:06.429Z,23.17
2022-10-07T12:46:47.949Z,22.96
2022-10-07T12:49:26.865Z,22.84
2022-10-07T12:52:12.775Z,22.76
2022-10-07T12:54:47.800Z,22.73
2022-10-07T12:57:24.388Z,22.70
2022-10-07T13:00:08.007Z,22.69
2022-10-07T13:03:17.493Z,22.68
2022-10-07T13:06:28.719Z,22.70
2022-10-07T13:09:25.939Z,22.75
2022-10-07T13:12:21.440Z,22.75
2022-10-07T13:15:05.216Z,22.76
2022-10-07T13:17:48.462Z,22.78
2022-10-07T13:20:44.850Z,22.77
2022-10-07T13:23:26.077Z,22.70
2022-10-07T13:26:03.037Z,22.65
2022-10-07T13:28:46.025Z,22.60
2022-10-07T13:31:22.430Z,22.58
2022-10-07T13:33:56.256Z,22.56
2022-10-07T13:36:32.733Z,22.59
2022-10-07T13:39:20.726Z,22.58
2022-10-07T13:41:55.838Z,22.55
2022-10-07T13:44:32.612Z,22.51
2022-10-07T13:47:07.583Z,22.46
2022-10-07T13:49:43.809Z,22.43
2022-10-07T13:52:22.419Z,22.41
2022-10-07T13:54:54.889Z,22.39
2022-10-07T13:57:29.465Z,22.32
2022-10-07T14:00:02.919Z,22.28
2022-10-07T14:02:40.082Z,22.27
2022-10-07T14:05:22.129Z,22.27
2022-10-07T14:07:58.332Z,22.23
2022-10-07T14:10:32.222Z,22.16
2022-10-07T14:13:09.315Z,22.11
2022-10-07T14:15:48.804Z,22.10
2022-10-07T14:18:21.394Z,22.09
2022-10-07T14:20:56.764Z,22.05
2022-10-07T14:23:31.291Z,22.03
2022-10-07T14:26:05.450Z,21.97
2022-10-07T14:28:39.511Z,21.91
2022-10-07T14:31:40.696Z,21.88
2022-10-07T14:34:34.238Z,21.84
2022-10-07T14:37:09.514Z,21.80
2022-10-07T14:39:47.801Z,21.75
2022-10-07T14:42:23.236Z,21.71
2022-10-07T14:44:56.724Z,21.67
2022-10-07T14:47:31.572Z,21.64
2022-10-07T14:50:03.729Z,21.61
2022-10-07T14:52:44.540Z,21.57
2022-10-07T14:55:20.559Z,21.54
2022-10-07T14:57:52.977Z,21.49
2022-10-07T15:00:29.458Z,21.46
2022-10-07T15:03:03.036Z,21.42
2022-10-07T15:05:35.282Z,21.40
2022-10-07T15:08:07.617Z,21.37
2022-10-07T15:10:41.204Z,21.33
2022-10-07T15:13:14.449Z,21.33
2022-10-07T15:15:49.251Z,21.30
2022-10-07T15:18:21.744Z,21.27
2022-10-07T15:20:58.962Z,21.23
2022-10-07T15:23:31.497Z,21.21
2022-10-07T15:26:03.883Z,21.17
2022-10-07T15:28:37.391Z,21.15
2022-10-07T15:31:11.573Z,21.12
2022-10-07T15:33:44.498Z,21.09
2022-10-07T15:36:17.893Z,21.05
2022-10-07T15:38:50.133Z,21.02
2022-10-07T15:41:36.868Z,20.98
2022-10-07T15:44:16.121Z,20.93
2022-10-07T15:46:50.664Z,20.90
2022-10-07T15:49:23.423Z,20.87
2022-10-07T15:51:56.913Z,20.85
2022-10-07T15:54:29.128Z,20.81
2022-10-07T15:57:01.554Z,20.78
2022-10-07T15:59:33.735Z,20.72
2022-10-07T16:02:10.379Z,20.69
2022-10-07T16:04:47.580Z,20.66
2022-10-07T16:07:19.849Z,20.62
2022-10-07T16:09:52.143Z,20.57
2022-10-07T16:12:24.299Z,20.56
2022-10-07T16:14:56.573Z,20.54
2022-10-07T16:17:30.045Z,20.53
2022-10-07T16:20:05.580Z,20.50
2022-10-07T16:22:41.215Z,20.47
2022-10-07T16:25:14.726Z,20.43
2022-10-07T16:28:04.633Z,20.39
2022-10-07T16:30:42.965Z,20.34
2022-10-07T16:33:15.505Z,20.29
2022-10-07T16:35:47.643Z,20.23
2022-10-07T16:38:22.503Z,20.17
2022-10-07T16:40:57.892Z,20.12
2022-10-07T16:43:30.248Z,20.08
2022-10-07T16:46:04.587Z,20.06
2022-10-07T16:48:41.566Z,20.02
2022-10-07T16:51:15.345Z,19.99
2022-10-07T16:53:48.998Z,19.96
2022-10-07T16:56:22.109Z,19.92
2022-10-07T16:59:00.125Z,19.86
2022-10-07T17:01:36.387Z,19.79
2022-10-07T17:04:09.072Z,19.74
2022-10-07T17:06:42.986Z,19.67
2022-10-07T17:09:15.913Z,19.61
2022-10-07T17:11:48.306Z,19.55
2022-10-07T17:14:22.109Z,19.44
2022-10-07T17:16:57.658Z,19.33
2022-10-07T17:19:31.017Z,19.20
2022-10-07T17:22:04.173Z,19.08
2022-10-07T17:24:37.369Z,18.99
2022-10-07T17:27:09.665Z,18.96
2022-10-07T17:29:41.825Z,18.95
2022-10-07T17:32:14.625Z,18.95
2022-10-07T17:34:46.877Z,18.97
2022-10-07T17:37:19.056Z,18.98
2022-10-07T17:39:51.260Z,18.98
2022-10-07T17:42:23.465Z,19.00
2022-10-07T17:44:55.677Z,19.00
2022-10-07T17:47:27.958Z,19.00
2022-10-07T17:50:01.346Z,18.98
2022-10-07T17:52:33.587Z,18.96
2022-10-07T17:55:07.072Z,18.92
2022-10-07T17:57:39.272Z,18.86
2022-10-07T18:00:13.039Z,18.82
2022-10-07T18:02:48.069Z,18.80
2022-10-07T18:05:20.952Z,18.77
2022-10-07T18:07:53.145Z,18.73
2022-10-07T18:10:25.909Z,18.70
2022-10-07T18:13:11.936Z,18.64
2022-10-07T18:15:44.184Z,18.60
2022-10-07T18:18:16.357Z,18.57
2022-10-07T18:20:48.597Z,18.52
2022-10-07T18:23:20.830Z,18.48
2022-10-07T18:25:53.800Z,18.44
2022-10-07T18:28:26.050Z,18.41
2022-10-07T18:30:58.279Z,18.38
2022-10-07T18:33:31.792Z,18.32
2022-10-07T18:36:07.180Z,18.28
2022-10-07T18:38:40.898Z,18.26
2022-10-07T18:41:14.829Z,18.22
2022-10-07T18:43:48.441Z,18.18
2022-10-07T18:46:21.462Z,18.14
2022-10-07T18:48:54.296Z,18.11
2022-10-07T18:51:26.876Z,18.09
2022-10-07T18:53:59.403Z,18.06
2022-10-07T18:56:31.663Z,18.02
2022-10-07T18:59:04.928Z,17.98
2022-10-07T19:01:37.877Z,17.96
2022-10-07T19:04:11.295Z,17.94
2022-10-07T19:06:46.143Z,17.93
2022-10-07T19:09:20.761Z,17.89
2022-10-07T19:11:53.181Z,17.87
2022-10-07T19:14:28.167Z,17.83
2022-10-07T19:17:00.605Z,17.78
2022-10-07T19:19:34.352Z,17.72
2022-10-07T19:22:06.753Z,17.69
2022-10-07T19:24:56.499Z,17.63
2022-10-07T19:27:28.797Z,17.55
2022-10-07T19:30:01.352Z,17.49
2022-10-07T19:32:33.659Z,17.44
2022-10-07T19:35:06.571Z,17.42
2022-10-07T19:37:38.765Z,17.43
2022-10-07T19:40:11.760Z,17.41
2022-10-07T19:42:44.000Z,17.40
2022-10-07T19:45:16.425Z,17.40
2022-10-07T19:47:49.363Z,17.37
2022-10-07T19:50:21.733Z,17.34
2022-10-07T19:52:57.004Z,17.31
2022-10-07T19:55:29.864Z,17.29
2022-10-07T19:58:03.477Z,17.27
2022-10-07T20:00:35.660Z,17.20
2022-10-07T20:03:07.897Z,17.12
2022-10-07T20:05:42.252Z,17.05
2022-10-07T20:08:14.552Z,17.01
2022-10-07T20:10:46.768Z,16.98
2022-10-07T20:13:18.945Z,16.95
2022-10-07T20:15:51.300Z,16.89
2022-10-07T20:18:23.478Z,16.86
2022-10-07T20:21:01.193Z,16.82
2022-10-07T20:23:37.444Z,16.78
2022-10-07T20:26:12.374Z,16.72
2022-10-07T20:28:44.788Z,16.71
2022-10-07T20:31:19.361Z,16.71
2022-10-07T20:33:53.548Z,16.71
2022-10-07T20:36:28.310Z,16.72
2022-10-07T20:39:19.841Z,16.71
2022-10-07T20:42:10.249Z,16.71
2022-10-07T20:44:42.447Z,16.68
2022-10-07T20:47:14.709Z,16.66
2022-10-07T20:49:48.734Z,16.64
2022-10-07T20:52:23.004Z,16.65
2022-10-07T20:54:56.184Z,16.63
2022-10-07T20:57:33.504Z,16.60
2022-10-07T21:00:07.119Z,16.57
2022-10-07T21:02:39.487Z,16.55
2022-10-07T21:05:12.222Z,16.53
2022-10-07T21:07:44.405Z,16.52
2022-10-07T21:10:16.881Z,16.51
2022-10-07T21:12:49.882Z,16.49
2022-10-07T21:15:22.190Z,16.48
2022-10-07T21:17:55.458Z,16.45
2022-10-07T21:20:27.650Z,16.44
2022-10-07T21:22:59.812Z,16.42
2022-10-07T21:25:32.748Z,16.42
2022-10-07T21:28:04.998Z,16.43
2022-10-07T21:30:37.198Z,16.46
2022-10-07T21:33:13.060Z,16.50
2022-10-07T21:35:45.197Z,16.55
2022-10-07T21:38:17.571Z,16.61
2022-10-07T21:40:50.348Z,16.66
2022-10-07T21:43:22.675Z,16.73
2022-10-07T21:45:58.451Z,16.78
2022-10-07T21:48:30.350Z,16.81
2022-10-07T21:51:09.286Z,16.82
2022-10-07T21:53:41.994Z,16.86
2022-10-07T21:56:17.016Z,16.88
2022-10-07T21:58:51.241Z,16.90
2022-10-07T22:01:25.511Z,16.93
2022-10-07T22:03:59.520Z,16.93
2022-10-07T22:06:50.065Z,16.94
2022-10-07T22:09:22.303Z,16.94
2022-10-07T22:11:54.464Z,16.95
2022-10-07T22:14:27.823Z,16.94
2022-10-07T22:17:00.105Z,16.95
2022-10-07T22:19:32.369Z,16.96
2022-10-07T22:22:04.653Z,16.98
2022-10-07T22:24:36.814Z,16.98
2022-10-07T22:27:09.054Z,16.98
2022-10-07T22:29:41.263Z,16.98
2022-10-07T22:32:13.441Z,16.99
2022-10-07T22:35:03.221Z,17.00
2022-10-07T22:37:35.387Z,17.01
2022-10-07T22:40:09.108Z,17.01
2022-10-07T22:42:41.342Z,17.03
2022-10-07T22:45:14.023Z,17.03
2022-10-07T22:47:46.557Z,17.03
2022-10-07T22:50:18.936Z,17.03
2022-10-07T22:52:51.126Z,17.02
2022-10-07T22:55:23.577Z,17.01
2022-10-07T22:57:55.755Z,17.03
2022-10-07T23:00:28.014Z,17.03
2022-10-07T23:03:00.317Z,17.02
2022-10-07T23:05:36.208Z,17.01
2022-10-07T23:08:06.711Z,17.01
2022-10-07T23:10:39.450Z,16.99
2022-10-07T23:13:11.691Z,16.98
2022-10-07T23:15:43.932Z,16.98
2022-10-07T23:18:16.177Z,16.97
2022-10-07T23:20:48.822Z,16.97
2022-10-07T23:23:21.006Z,16.95
2022-10-07T23:25:53.257Z,16.92
2022-10-07T23:28:26.382Z,16.90
2022-10-07T23:30:58.988Z,16.89
2022-10-07T23:33:31.707Z,16.91
2022-10-07T23:36:05.920Z,16.89
2022-10-07T23:38:39.917Z,16.89
2022-10-07T23:41:12.460Z,16.90
2022-10-07T23:43:45.011Z,16.89
2022-10-07T23:46:17.398Z,16.90
2022-10-07T23:48:50.308Z,16.90
2022-10-07T23:51:24.215Z,16.91
2022-10-07T23:53:59.081Z,16.92
2022-10-07T23:56:31.959Z,16.91
2022-10-07T23:59:04.233Z,16.91
